Meteorología y climatología de Navarra
Datos de la estación - Meteo Navarra

Estación de Irabia GN

Altitud 822 m.


Datos desde el 10/10/2019 hasta el 11/10/2019 en horario solar
Los datos son PROVISIONALES

Anterior Página 1 de 1 Siguiente Descargar: Formato para Excel 2000 o superior   Formato csv   Formato para OpenOffice Calc
Fecha Temperatura Humedad relativa Radiación global Insolación Precipitación Vel. viento 10 m Vel. viento 10 m Dir. viento 10 m
ºC % W/m² s l/m² m/s km/h º
10/10/2019 0:00 7.5 98 - - - - 0.0 - - - - - -
10/10/2019 0:10 7.5 97 - - - - 0.0 - - - - - -
10/10/2019 0:20 7.4 96 - - - - 0.0 - - - - - -
10/10/2019 0:30 7.5 95 - - - - 0.0 - - - - - -
10/10/2019 0:40 7.5 96 - - - - 0.0 - - - - - -
10/10/2019 0:50 7.5 96 - - - - 0.0 - - - - - -
10/10/2019 1:00 7.5 97 - - - - 0.0 - - - - - -
10/10/2019 1:10 7.5 97 - - - - 0.0 - - - - - -
10/10/2019 1:20 7.6 97 - - - - 0.0 - - - - - -
10/10/2019 1:30 7.6 97 - - - - 0.0 - - - - - -
10/10/2019 1:40 7.7 96 - - - - 0.0 - - - - - -
10/10/2019 1:50 7.9 94 - - - - 0.0 - - - - - -
10/10/2019 2:00 8.0 94 - - - - 0.0 - - - - - -
10/10/2019 2:10 7.9 95 - - - - 0.0 - - - - - -
10/10/2019 2:20 8.0 96 - - - - 0.0 - - - - - -
10/10/2019 2:30 8.0 97 - - - - 0.0 - - - - - -
10/10/2019 2:40 8.0 97 - - - - 0.1 - - - - - -
10/10/2019 2:50 8.1 97 - - - - 0.0 - - - - - -
10/10/2019 3:00 8.0 97 - - - - 0.0 - - - - - -
10/10/2019 3:10 7.9 98 - - - - 0.0 - - - - - -
10/10/2019 3:20 8.0 97 - - - - 0.0 - - - - - -
10/10/2019 3:30 8.2 96 - - - - 0.0 - - - - - -
10/10/2019 3:40 8.0 96 - - - - 0.0 - - - - - -
10/10/2019 3:50 7.6 96 - - - - 0.0 - - - - - -
10/10/2019 4:00 7.4 98 - - - - 0.0 - - - - - -
10/10/2019 4:10 7.1 98 - - - - 0.0 - - - - - -
10/10/2019 4:20 7.0 98 - - - - 0.0 - - - - - -
10/10/2019 4:30 7.2 98 - - - - 0.0 - - - - - -
10/10/2019 4:40 7.2 98 - - - - 0.0 - - - - - -
10/10/2019 4:50 6.9 98 - - - - 0.0 - - - - - -
10/10/2019 5:00 6.8 98 - - - - 0.0 - - - - - -
10/10/2019 5:10 6.5 98 - - - - 0.0 - - - - - -
10/10/2019 5:20 6.5 98 - - - - 0.0 - - - - - -
10/10/2019 5:30 6.3 98 - - - - 0.0 - - - - - -
10/10/2019 5:40 6.2 98 - - - - 0.0 - - - - - -
10/10/2019 5:50 6.1 98 - - - - 0.0 - - - - - -
10/10/2019 6:00 6.1 98 - - - - 0.0 - - - - - -
10/10/2019 6:10 6.1 98 - - - - 0.0 - - - - - -
10/10/2019 6:20 6.1 98 - - - - 0.0 - - - - - -
10/10/2019 6:30 6.1 98 - - - - 0.0 - - - - - -
10/10/2019 6:40 6.0 98 - - - - 0.0 - - - - - -
10/10/2019 6:50 6.3 98 - - - - 0.0 - - - - - -
10/10/2019 7:00 6.3 98 - - - - 0.0 - - - - - -
10/10/2019 7:10 6.5 98 - - - - 0.0 - - - - - -
10/10/2019 7:20 6.7 98 - - - - 0.0 - - - - - -
10/10/2019 7:30 6.9 98 - - - - 0.0 - - - - - -
10/10/2019 7:40 6.7 98 - - - - 0.0 - - - - - -
10/10/2019 7:50 6.6 98 - - - - 0.0 - - - - - -
10/10/2019 8:00 6.7 98 - - - - 0.0 - - - - - -
10/10/2019 8:10 6.8 98 - - - - 0.0 - - - - - -
10/10/2019 8:20 7.2 98 - - - - 0.0 - - - - - -
10/10/2019 8:30 7.6 98 - - - - 0.0 - - - - - -
10/10/2019 8:40 8.0 98 - - - - 0.0 - - - - - -
10/10/2019 8:50 9.4 93 - - - - 0.0 - - - - - -
10/10/2019 9:00 11.2 82 - - - - 0.0 - - - - - -
10/10/2019 9:10 12.1 79 - - - - 0.0 - - - - - -
10/10/2019 9:20 12.1 79 - - - - 0.0 - - - - - -
10/10/2019 9:30 12.8 75 - - - - 0.0 - - - - - -
10/10/2019 9:40 12.9 75 - - - - 0.0 - - - - - -
10/10/2019 9:50 12.8 77 - - - - 0.0 - - - - - -
10/10/2019 10:00 13.4 75 - - - - 0.0 - - - - - -
10/10/2019 10:10 13.2 75 - - - - 0.0 - - - - - -
10/10/2019 10:20 13.7 69 - - - - 0.0 - - - - - -
10/10/2019 10:30 14.4 66 - - - - 0.0 - - - - - -
10/10/2019 10:40 14.5 67 - - - - 0.0 - - - - - -
10/10/2019 10:50 14.8 66 - - - - 0.0 - - - - - -
10/10/2019 11:00 14.6 68 - - - - 0.0 - - - - - -
10/10/2019 11:10 14.7 68 - - - - 0.0 - - - - - -
10/10/2019 11:20 14.7 67 - - - - 0.0 - - - - - -
10/10/2019 11:30 15.2 69 - - - - 0.0 - - - - - -
10/10/2019 11:40 15.6 65 - - - - 0.0 - - - - - -
10/10/2019 11:50 15.8 65 - - - - 0.0 - - - - - -
10/10/2019 12:00 15.6 67 - - - - 0.0 - - - - - -
10/10/2019 12:10 15.8 67 - - - - 0.0 - - - - - -
10/10/2019 12:20 16.2 66 - - - - 0.0 - - - - - -
10/10/2019 12:30 16.0 66 - - - - 0.0 - - - - - -
10/10/2019 12:40 16.2 66 - - - - 0.0 - - - - - -
10/10/2019 12:50 16.2 65 - - - - 0.0 - - - - - -
10/10/2019 13:00 16.2 65 - - - - 0.0 - - - - - -
10/10/2019 13:10 16.3 65 - - - - 0.0 - - - - - -
10/10/2019 13:20 16.4 65 - - - - 0.0 - - - - - -
10/10/2019 13:30 16.4 66 - - - - 0.0 - - - - - -
10/10/2019 13:40 16.3 66 - - - - 0.0 - - - - - -
10/10/2019 13:50 16.3 67 - - - - 0.0 - - - - - -
10/10/2019 14:00 16.3 66 - - - - 0.0 - - - - - -
10/10/2019 14:10 16.2 68 - - - - 0.0 - - - - - -
10/10/2019 14:20 16.1 69 - - - - 0.0 - - - - - -
10/10/2019 14:30 15.9 70 - - - - 0.0 - - - - - -
10/10/2019 14:40 15.7 73 - - - - 0.0 - - - - - -
10/10/2019 14:50 15.5 73 - - - - 0.0 - - - - - -
10/10/2019 15:00 15.2 74 - - - - 0.0 - - - - - -
10/10/2019 15:10 15.1 75 - - - - 0.0 - - - - - -
10/10/2019 15:20 15.0 75 - - - - 0.0 - - - - - -
10/10/2019 15:30 14.7 76 - - - - 0.0 - - - - - -
10/10/2019 15:40 14.5 79 - - - - 0.0 - - - - - -
10/10/2019 15:50 14.4 79 - - - - 0.0 - - - - - -
10/10/2019 16:00 14.2 80 - - - - 0.0 - - - - - -
10/10/2019 16:10 13.9 81 - - - - 0.0 - - - - - -
10/10/2019 16:20 13.6 82 - - - - 0.0 - - - - - -
10/10/2019 16:30 13.3 83 - - - - 0.0 - - - - - -
10/10/2019 16:40 13.0 83 - - - - 0.0 - - - - - -
10/10/2019 16:50 12.7 84 - - - - 0.0 - - - - - -
10/10/2019 17:00 12.4 85 - - - - 0.0 - - - - - -
10/10/2019 17:10 12.1 88 - - - - 0.0 - - - - - -
10/10/2019 17:20 11.7 89 - - - - 0.0 - - - - - -
10/10/2019 17:30 11.4 92 - - - - 0.0 - - - - - -
10/10/2019 17:40 10.9 92 - - - - 0.0 - - - - - -
10/10/2019 17:50 10.6 93 - - - - 0.0 - - - - - -
10/10/2019 18:00 10.2 94 - - - - 0.0 - - - - - -
10/10/2019 18:10 10.0 95 - - - - 0.0 - - - - - -
10/10/2019 18:20 9.8 96 - - - - 0.0 - - - - - -
10/10/2019 18:30 9.7 96 - - - - 0.0 - - - - - -
10/10/2019 18:40 9.4 96 - - - - 0.0 - - - - - -
10/10/2019 18:50 9.2 96 - - - - 0.0 - - - - - -
10/10/2019 19:00 8.9 96 - - - - 0.0 - - - - - -
10/10/2019 19:10 8.7 97 - - - - 0.0 - - - - - -
10/10/2019 19:20 8.6 97 - - - - 0.0 - - - - - -
10/10/2019 19:30 8.3 97 - - - - 0.0 - - - - - -
10/10/2019 19:40 8.2 97 - - - - 0.0 - - - - - -
10/10/2019 19:50 8.2 98 - - - - 0.0 - - - - - -
10/10/2019 20:00 8.1 98 - - - - 0.0 - - - - - -
10/10/2019 20:10 8.0 98 - - - - 0.0 - - - - - -
10/10/2019 20:20 7.8 97 - - - - 0.0 - - - - - -
10/10/2019 20:30 7.7 97 - - - - 0.0 - - - - - -
10/10/2019 20:40 7.5 97 - - - - 0.0 - - - - - -
10/10/2019 20:50 7.3 97 - - - - 0.0 - - - - - -
10/10/2019 21:00 7.2 98 - - - - 0.0 - - - - - -
10/10/2019 21:10 7.1 98 - - - - 0.0 - - - - - -
10/10/2019 21:20 7.0 98 - - - - 0.0 - - - - - -
10/10/2019 21:30 6.9 98 - - - - 0.0 - - - - - -
10/10/2019 21:40 6.8 98 - - - - 0.0 - - - - - -
10/10/2019 21:50 6.9 98 - - - - 0.0 - - - - - -
10/10/2019 22:00 6.9 98 - - - - 0.0 - - - - - -
10/10/2019 22:10 6.9 98 - - - - 0.0 - - - - - -
10/10/2019 22:20 7.0 98 - - - - 0.0 - - - - - -
10/10/2019 22:30 7.0 98 - - - - 0.0 - - - - - -
10/10/2019 22:40 6.9 98 - - - - 0.0 - - - - - -
10/10/2019 22:50 6.7 98 - - - - 0.0 - - - - - -
10/10/2019 23:00 6.8 98 - - - - 0.0 - - - - - -
10/10/2019 23:10 6.9 98 - - - - 0.0 - - - - - -
10/10/2019 23:20 7.1 98 - - - - 0.0 - - - - - -
10/10/2019 23:30 6.9 98 - - - - 0.0 - - - - - -
10/10/2019 23:40 6.9 98 - - - - 0.0 - - - - - -
10/10/2019 23:50 6.8 98 - - - - 0.0 - - - - - -
Anterior Página 1 de 1 Siguiente

NOTA: Tipo de datos según el color:
   - Valores diarios o 10 minutos correctos
   - Valores diarios calculados a partir de un número de datos 10 minutos menor que 144 y mayor que 120, o de un número de datos semihorarios menor que 48 y mayor que 40 (caso de las estaciones de Riegos de Navarra y del MARM)
   - Valores diez minutos estimados


Contacto        Enlaces        Aviso legal